createdAt,value
2018-08-11T00:00:12.075Z,1.83
2018-08-11T00:02:39.924Z,1.40
2018-08-11T00:05:07.819Z,1.40
2018-08-11T00:07:36.934Z,1.60
2018-08-11T00:10:06.667Z,1.90
2018-08-11T00:12:35.326Z,1.50
2018-08-11T00:15:04.107Z,1.87
2018-08-11T00:17:32.769Z,1.73
2018-08-11T00:20:01.372Z,2.00
2018-08-11T00:22:29.827Z,2.50
2018-08-11T00:24:57.973Z,2.40
2018-08-11T00:27:31.688Z,2.17
2018-08-11T00:30:02.306Z,1.50
2018-08-11T00:32:30.474Z,2.07
2018-08-11T00:34:59.356Z,1.70
2018-08-11T00:37:27.279Z,1.70
2018-08-11T00:39:56.629Z,1.67
2018-08-11T00:42:24.690Z,1.40
2018-08-11T00:44:52.551Z,1.40
2018-08-11T00:47:20.699Z,1.60
2018-08-11T00:49:49.221Z,1.80
2018-08-11T00:52:17.104Z,1.60
2018-08-11T00:54:44.922Z,1.63
2018-08-11T00:57:13.508Z,1.47
2018-08-11T00:59:41.498Z,1.87
2018-08-11T01:02:09.460Z,1.80
2018-08-11T01:04:37.923Z,1.60
2018-08-11T01:07:05.945Z,1.80
2018-08-11T01:09:34.554Z,1.63
2018-08-11T01:19:03.946Z,1.43
2018-08-11T01:21:31.924Z,1.70
2018-08-11T01:24:00.934Z,1.80
2018-08-11T01:26:28.843Z,1.67
2018-08-11T01:28:56.834Z,1.37
2018-08-11T01:31:25.467Z,1.90
2018-08-11T01:33:53.567Z,1.70
2018-08-11T01:36:21.250Z,1.40
2018-08-11T01:38:49.209Z,1.07
2018-08-11T01:41:17.085Z,1.87
2018-08-11T01:43:45.125Z,1.07
2018-08-11T01:46:13.025Z,1.80
2018-08-11T01:48:41.944Z,1.43
2018-08-11T01:51:10.501Z,1.40
2018-08-11T01:53:38.355Z,1.40
2018-08-11T01:56:06.454Z,1.30
2018-08-11T01:58:35.104Z,1.10
2018-08-11T02:01:03.080Z,1.20
2018-08-11T02:03:31.824Z,1.10
2018-08-11T02:06:00.580Z,1.40
2018-08-11T02:08:28.782Z,1.97
2018-08-11T02:10:56.646Z,0.70
2018-08-11T02:13:25.629Z,1.30
2018-08-11T02:15:53.717Z,1.63
2018-08-11T02:18:22.148Z,1.50
2018-08-11T02:20:50.642Z,1.30
2018-08-11T02:23:19.046Z,1.77
2018-08-11T02:25:49.546Z,1.73
2018-08-11T02:28:19.024Z,1.30
2018-08-11T02:30:47.504Z,1.60
2018-08-11T02:33:15.300Z,2.33
2018-08-11T02:35:43.889Z,1.43
2018-08-11T02:38:13.087Z,1.10
2018-08-11T02:40:41.602Z,1.40
2018-08-11T02:43:09.576Z,1.67
2018-08-11T02:45:38.126Z,1.80
2018-08-11T02:48:06.078Z,1.70
2018-08-11T02:50:34.324Z,1.50
2018-08-11T02:53:02.344Z,1.47
2018-08-11T02:55:30.797Z,1.10
2018-08-11T02:57:59.664Z,1.47
2018-08-11T03:00:27.471Z,1.63
2018-08-11T03:02:57.345Z,1.50
2018-08-11T03:05:25.944Z,1.27
2018-08-11T03:07:54.328Z,1.60
2018-08-11T03:10:23.194Z,2.33
2018-08-11T03:12:50.951Z,2.00
2018-08-11T03:15:18.561Z,1.83
2018-08-11T03:17:46.234Z,1.60
2018-08-11T03:20:15.093Z,1.67
2018-08-11T03:22:43.704Z,2.17
2018-08-11T03:25:11.670Z,1.70
2018-08-11T03:27:39.611Z,1.43
2018-08-11T03:30:07.943Z,1.20
2018-08-11T03:32:36.657Z,1.50
2018-08-11T03:35:06.120Z,2.20
2018-08-11T03:37:34.158Z,2.90
2018-08-11T03:40:01.983Z,2.10
2018-08-11T03:42:29.828Z,1.70
2018-08-11T03:44:58.816Z,1.83
2018-08-11T03:47:26.562Z,2.23
2018-08-11T03:49:54.347Z,1.30
2018-08-11T03:52:22.392Z,1.50
2018-08-11T03:54:50.141Z,1.60
2018-08-11T03:57:17.960Z,2.63
2018-08-11T03:59:46.866Z,1.60
2018-08-11T04:02:14.681Z,1.20
2018-08-11T04:04:43.561Z,1.80
2018-08-11T04:07:12.120Z,2.07
2018-08-11T04:09:39.993Z,1.53
2018-08-11T04:12:09.516Z,1.53
2018-08-11T04:14:38.114Z,1.50
2018-08-11T04:17:07.001Z,2.83
2018-08-11T04:19:35.514Z,2.23
2018-08-11T04:22:03.324Z,1.90
2018-08-11T04:24:31.235Z,1.70
2018-08-11T04:26:59.152Z,1.47
2018-08-11T04:29:27.156Z,1.80
2018-08-11T04:31:55.193Z,1.40
2018-08-11T04:34:23.680Z,1.40
2018-08-11T04:36:51.639Z,1.73
2018-08-11T04:39:20.136Z,1.93
2018-08-11T04:41:48.555Z,2.27
2018-08-11T04:44:17.449Z,1.20
2018-08-11T04:46:46.601Z,1.57
2018-08-11T04:49:14.516Z,1.60
2018-08-11T04:51:43.980Z,2.00
2018-08-11T04:54:11.827Z,1.80
2018-08-11T04:56:40.334Z,2.10
2018-08-11T04:59:09.499Z,2.40
2018-08-11T05:01:37.200Z,2.40
2018-08-11T05:04:05.849Z,1.83
2018-08-11T05:06:33.677Z,2.60
2018-08-11T05:09:02.010Z,1.47
2018-08-11T05:11:30.899Z,1.50
2018-08-11T05:13:58.772Z,1.27
2018-08-11T05:16:27.450Z,1.93
2018-08-11T05:18:55.392Z,1.60
2018-08-11T05:21:23.288Z,1.20
2018-08-11T05:23:51.965Z,1.50
2018-08-11T05:26:19.789Z,1.57
2018-08-11T05:28:48.245Z,1.50
2018-08-11T05:31:16.992Z,2.30
2018-08-11T05:33:44.789Z,1.97
2018-08-11T05:36:14.075Z,1.73
2018-08-11T05:38:42.507Z,1.50
2018-08-11T05:41:10.366Z,1.50
2018-08-11T05:43:38.688Z,1.37
2018-08-11T05:46:06.449Z,1.70
2018-08-11T05:48:34.353Z,1.63
2018-08-11T05:51:02.915Z,1.47
2018-08-11T05:53:31.412Z,1.80
2018-08-11T05:55:59.208Z,1.50
2018-08-11T05:58:28.234Z,1.10
2018-08-11T06:00:56.241Z,1.93
2018-08-11T06:03:24.224Z,1.90
2018-08-11T06:05:52.804Z,2.30
2018-08-11T06:08:21.602Z,1.77
2018-08-11T06:10:50.093Z,3.63
2018-08-11T06:13:18.150Z,1.93
2018-08-11T06:15:45.984Z,3.90
2018-08-11T06:18:13.648Z,2.27
2018-08-11T06:20:41.633Z,2.00
2018-08-11T06:23:09.991Z,1.83
2018-08-11T06:25:37.848Z,2.60
2018-08-11T06:28:06.496Z,1.90
2018-08-11T06:30:35.101Z,1.70
2018-08-11T06:33:02.797Z,1.27
2018-08-11T06:35:32.764Z,2.30
2018-08-11T06:38:01.293Z,2.23
2018-08-11T06:40:29.783Z,2.83
2018-08-11T06:42:58.432Z,2.73
2018-08-11T06:45:26.284Z,2.63
2018-08-11T06:47:55.299Z,2.10
2018-08-11T06:50:24.013Z,2.00
2018-08-11T06:52:52.688Z,2.57
2018-08-11T06:55:20.822Z,2.20
2018-08-11T06:57:49.200Z,1.77
2018-08-11T07:00:16.832Z,1.77
2018-08-11T07:02:44.522Z,1.97
2018-08-11T07:05:12.474Z,1.93
2018-08-11T07:07:40.227Z,1.80
2018-08-11T07:10:08.607Z,2.70
2018-08-11T07:12:37.208Z,2.30
2018-08-11T07:15:05.700Z,1.80
2018-08-11T07:17:35.182Z,2.33
2018-08-11T07:20:03.640Z,1.60
2018-08-11T07:22:32.152Z,1.80
2018-08-11T07:25:00.561Z,2.03
2018-08-11T07:27:29.170Z,2.40
2018-08-11T07:29:57.676Z,1.57
2018-08-11T07:32:26.175Z,2.20
2018-08-11T07:34:53.941Z,1.73
2018-08-11T07:37:22.822Z,1.40
2018-08-11T07:39:51.157Z,1.23
2018-08-11T07:42:19.558Z,1.47
2018-08-11T07:44:48.193Z,3.77
2018-08-11T07:47:16.392Z,2.37
2018-08-11T07:49:44.843Z,1.70
2018-08-11T07:52:12.796Z,1.43
2018-08-11T07:54:41.528Z,1.50
2018-08-11T07:57:09.945Z,1.30
2018-08-11T07:59:38.436Z,1.67
2018-08-11T08:02:06.642Z,1.50
2018-08-11T08:04:34.555Z,1.30
2018-08-11T08:07:03.113Z,1.30
2018-08-11T08:09:31.097Z,1.50
2018-08-11T08:11:59.664Z,1.60
2018-08-11T08:14:28.296Z,1.53
2018-08-11T08:16:56.663Z,2.07
2018-08-11T08:19:25.896Z,1.60
2018-08-11T08:21:53.779Z,1.40
2018-08-11T08:24:21.988Z,2.30
2018-08-11T08:26:50.824Z,1.60
2018-08-11T08:29:20.023Z,1.90
2018-08-11T08:31:48.156Z,1.43
2018-08-11T08:34:17.161Z,1.40
2018-08-11T08:36:45.255Z,1.90
2018-08-11T08:39:13.109Z,1.20
2018-08-11T08:41:41.391Z,1.33
2018-08-11T08:44:09.591Z,1.13
2018-08-11T08:46:38.142Z,1.20
2018-08-11T08:49:06.673Z,1.17
2018-08-11T08:51:35.386Z,1.23
2018-08-11T08:54:03.379Z,1.50
2018-08-11T08:56:31.307Z,1.10
2018-08-11T08:58:59.275Z,1.17
2018-08-11T09:01:27.153Z,1.30
2018-08-11T09:03:56.277Z,1.33
2018-08-11T09:06:24.149Z,1.20
2018-08-11T09:08:52.020Z,1.07
2018-08-11T09:11:20.801Z,1.00
2018-08-11T09:13:48.577Z,0.73
2018-08-11T09:16:17.046Z,1.07
2018-08-11T09:18:44.878Z,0.93
2018-08-11T09:21:13.350Z,0.73
2018-08-11T09:23:41.303Z,1.10
2018-08-11T09:26:09.425Z,1.30
2018-08-11T09:28:37.993Z,1.27
2018-08-11T09:31:07.238Z,1.00
2018-08-11T09:33:35.725Z,0.93
2018-08-11T09:36:04.214Z,0.90
2018-08-11T09:38:33.096Z,1.10
2018-08-11T09:41:01.256Z,0.80
2018-08-11T09:43:29.135Z,1.20
2018-08-11T09:45:57.147Z,1.03
2018-08-11T09:48:27.044Z,0.73
2018-08-11T09:50:56.981Z,1.07
2018-08-11T09:53:26.273Z,1.03
2018-08-11T09:55:54.200Z,1.10
2018-08-11T09:58:23.764Z,0.90
2018-08-11T10:00:56.680Z,1.10
2018-08-11T10:03:25.859Z,1.77
2018-08-11T10:05:53.762Z,0.90
2018-08-11T10:08:21.784Z,1.00
2018-08-11T10:10:50.246Z,1.30
2018-08-11T10:13:18.817Z,0.90
2018-08-11T10:15:46.901Z,1.00
2018-08-11T10:18:15.510Z,1.60
2018-08-11T10:20:43.484Z,1.00
2018-08-11T10:23:11.368Z,1.30
2018-08-11T10:25:41.666Z,1.50
2018-08-11T10:28:10.254Z,1.10
2018-08-11T10:30:38.281Z,1.20
2018-08-11T10:33:06.619Z,0.93
2018-08-11T10:35:34.446Z,1.20
2018-08-11T10:38:02.325Z,1.20
2018-08-11T10:40:30.421Z,1.33
2018-08-11T10:42:58.989Z,1.30
2018-08-11T10:45:27.081Z,1.00
2018-08-11T10:47:56.326Z,0.90
2018-08-11T10:50:24.716Z,1.23
2018-08-11T10:52:52.574Z,1.23
2018-08-11T10:55:21.072Z,1.23
2018-08-11T10:57:49.250Z,1.00
2018-08-11T11:00:17.221Z,1.20
2018-08-11T11:02:45.755Z,1.17
2018-08-11T11:05:15.482Z,1.40
2018-08-11T11:07:43.531Z,1.30
2018-08-11T11:10:14.502Z,1.07
2018-08-11T11:12:43.307Z,1.00
2018-08-11T11:15:11.316Z,1.20
2018-08-11T11:17:39.811Z,1.57
2018-08-11T11:20:09.517Z,1.10
2018-08-11T11:22:42.383Z,1.07
2018-08-11T11:25:10.475Z,1.20
2018-08-11T11:27:40.052Z,1.57
2018-08-11T11:30:08.055Z,1.43
2018-08-11T11:32:36.830Z,1.60
2018-08-11T11:35:04.651Z,1.50
2018-08-11T11:37:33.530Z,2.00
2018-08-11T11:40:04.326Z,2.00
2018-08-11T11:42:33.749Z,1.90
2018-08-11T11:45:02.252Z,2.00
2018-08-11T11:47:31.382Z,1.27
2018-08-11T11:49:59.288Z,1.30
2018-08-11T11:52:28.005Z,1.50
2018-08-11T11:54:56.112Z,1.07
2018-08-11T11:57:23.998Z,1.10
2018-08-11T11:59:52.463Z,0.70
2018-08-11T12:02:21.313Z,1.40
2018-08-11T12:04:49.211Z,1.20
2018-08-11T12:07:17.494Z,1.90
2018-08-11T12:09:46.783Z,1.77
2018-08-11T12:12:14.431Z,1.60
2018-08-11T12:14:43.008Z,1.37
2018-08-11T12:17:11.198Z,2.50
2018-08-11T12:19:40.169Z,1.90
2018-08-11T12:22:07.960Z,1.73
2018-08-11T12:24:37.208Z,1.30
2018-08-11T12:27:06.809Z,1.10
2018-08-11T12:29:34.847Z,1.57
2018-08-11T12:32:03.160Z,2.20
2018-08-11T12:34:31.867Z,0.80
2018-08-11T12:36:59.864Z,1.10
2018-08-11T12:39:27.739Z,1.57
2018-08-11T12:41:56.324Z,1.67
2018-08-11T12:44:25.461Z,2.53
2018-08-11T12:46:54.142Z,2.30
2018-08-11T12:49:22.241Z,1.77
2018-08-11T12:51:50.316Z,1.53
2018-08-11T12:54:18.865Z,1.43
2018-08-11T12:56:47.629Z,1.83
2018-08-11T12:59:16.418Z,1.40
2018-08-11T13:01:44.877Z,1.60
2018-08-11T13:04:12.908Z,1.23
2018-08-11T13:06:40.892Z,1.40
2018-08-11T13:09:10.486Z,1.30
2018-08-11T13:11:40.131Z,1.77
2018-08-11T13:14:08.161Z,1.87
2018-08-11T13:16:36.662Z,1.50
2018-08-11T13:19:05.748Z,1.97
2018-08-11T13:21:33.945Z,1.07
2018-08-11T13:24:02.527Z,1.00
2018-08-11T13:26:31.312Z,1.37
2018-08-11T13:28:59.270Z,1.13
2018-08-11T13:31:27.224Z,1.10
2018-08-11T13:33:56.112Z,1.30
2018-08-11T13:36:24.669Z,1.37
2018-08-11T13:38:52.379Z,1.30
2018-08-11T13:41:21.206Z,1.40
2018-08-11T13:43:50.021Z,1.30
2018-08-11T13:46:18.581Z,1.40
2018-08-11T13:48:46.887Z,1.10
2018-08-11T13:51:16.294Z,1.37
2018-08-11T13:53:44.858Z,0.93
2018-08-11T13:56:13.345Z,1.20
2018-08-11T13:58:41.325Z,1.60
2018-08-11T14:01:10.093Z,1.50
2018-08-11T14:03:38.911Z,1.37
2018-08-11T14:06:07.727Z,2.07
2018-08-11T14:08:36.644Z,1.50
2018-08-11T14:11:05.602Z,1.70
2018-08-11T14:13:33.683Z,1.20
2018-08-11T14:16:03.086Z,1.47
2018-08-11T14:18:31.216Z,0.90
2018-08-11T14:21:00.444Z,1.80
2018-08-11T14:23:29.639Z,1.70
2018-08-11T14:25:58.930Z,1.20
2018-08-11T14:28:26.911Z,1.40
2018-08-11T14:30:54.773Z,1.33
2018-08-11T14:33:22.673Z,2.50
2018-08-11T14:35:50.449Z,2.30
2018-08-11T14:38:18.289Z,1.50
2018-08-11T14:40:45.921Z,1.50
2018-08-11T14:43:14.732Z,1.47
2018-08-11T14:45:42.396Z,1.83
2018-08-11T14:48:10.128Z,0.90
2018-08-11T14:50:38.851Z,1.30
2018-08-11T14:53:06.565Z,1.53
2018-08-11T14:55:35.410Z,1.13
2018-08-11T14:58:03.414Z,1.30
2018-08-11T15:00:31.746Z,1.43
2018-08-11T15:03:00.605Z,1.93
2018-08-11T15:05:28.415Z,1.57
2018-08-11T15:07:57.319Z,2.10
2018-08-11T15:10:25.356Z,1.03
2018-08-11T15:12:53.405Z,1.03
2018-08-11T15:15:21.362Z,1.77
2018-08-11T15:17:49.886Z,1.53
2018-08-11T15:20:19.635Z,2.47
2018-08-11T15:22:48.819Z,1.70
2018-08-11T15:25:18.318Z,2.80
2018-08-11T15:27:47.309Z,1.30
2018-08-11T15:30:15.968Z,1.43
2018-08-11T15:32:43.943Z,1.73
2018-08-11T15:35:11.924Z,1.40
2018-08-11T15:37:42.034Z,1.97
2018-08-11T15:40:10.013Z,1.20
2018-08-11T15:42:38.856Z,1.60
2018-08-11T15:45:06.969Z,1.43
2018-08-11T15:47:34.943Z,2.03
2018-08-11T15:50:02.670Z,2.10
2018-08-11T15:52:31.109Z,1.40
2018-08-11T15:54:58.768Z,1.30
2018-08-11T15:57:26.454Z,1.80
2018-08-11T15:59:54.613Z,1.07
2018-08-11T16:02:22.602Z,1.30
2018-08-11T16:04:51.138Z,1.57
2018-08-11T16:07:20.360Z,1.70
2018-08-11T16:09:48.304Z,1.90
2018-08-11T16:12:17.027Z,1.80
2018-08-11T16:14:44.660Z,1.63
2018-08-11T16:17:12.463Z,1.53
2018-08-11T16:19:41.895Z,1.70
2018-08-11T16:22:10.273Z,1.20
2018-08-11T16:24:39.274Z,1.10
2018-08-11T16:27:07.434Z,1.20
2018-08-11T16:29:35.157Z,1.40
2018-08-11T16:32:02.962Z,1.90
2018-08-11T16:34:31.738Z,1.63
2018-08-11T16:36:59.700Z,1.60
2018-08-11T16:39:27.730Z,1.33
2018-08-11T16:41:56.271Z,1.60
2018-08-11T16:44:25.921Z,1.60
2018-08-11T16:46:54.512Z,2.40
2018-08-11T16:49:22.377Z,1.97
2018-08-11T16:51:50.966Z,2.37
2018-08-11T16:54:19.107Z,2.13
2018-08-11T16:56:47.033Z,2.07
2018-08-11T16:59:15.093Z,1.90
2018-08-11T17:01:42.886Z,1.90
2018-08-11T17:04:11.800Z,2.00
2018-08-11T17:06:40.228Z,2.23
2018-08-11T17:09:09.969Z,1.77
2018-08-11T17:11:38.746Z,2.03
2018-08-11T17:14:06.840Z,1.90
2018-08-11T17:16:36.273Z,1.43
2018-08-11T17:19:04.360Z,1.83
2018-08-11T17:21:32.244Z,1.57
2018-08-11T17:24:00.849Z,1.97
2018-08-11T17:26:28.861Z,1.97
2018-08-11T17:28:56.764Z,1.87
2018-08-11T17:31:24.915Z,1.87
2018-08-11T17:33:53.347Z,1.83
2018-08-11T17:36:21.195Z,1.87
2018-08-11T17:38:49.153Z,1.80
2018-08-11T17:41:16.953Z,2.03
2018-08-11T17:43:44.896Z,2.27
2018-08-11T17:46:13.274Z,2.17
2018-08-11T17:48:42.566Z,3.10
2018-08-11T17:51:10.241Z,2.77
2018-08-11T17:53:38.273Z,2.70
2018-08-11T17:56:06.269Z,2.30
2018-08-11T17:58:35.140Z,2.17
2018-08-11T18:01:04.329Z,2.37
2018-08-11T18:03:32.265Z,2.53
2018-08-11T18:06:01.463Z,2.40
2018-08-11T18:08:29.103Z,1.90
2018-08-11T18:10:56.907Z,2.20
2018-08-11T18:13:24.807Z,3.00
2018-08-11T18:15:52.845Z,2.77
2018-08-11T18:18:20.689Z,2.77
2018-08-11T18:20:48.968Z,2.37
2018-08-11T18:23:16.724Z,2.23
2018-08-11T18:25:44.485Z,4.23
2018-08-11T18:28:12.675Z,2.37
2018-08-11T18:30:41.548Z,2.07
2018-08-11T18:33:09.891Z,2.10
2018-08-11T18:35:37.868Z,2.43
2018-08-11T18:38:05.747Z,2.13
2018-08-11T18:40:33.565Z,2.03
2018-08-11T18:43:01.237Z,2.60
2018-08-11T18:45:28.971Z,2.23
2018-08-11T18:47:56.924Z,2.03
2018-08-11T18:50:25.991Z,2.07
2018-08-11T18:52:54.375Z,2.03
2018-08-11T18:55:24.210Z,2.47
2018-08-11T18:57:52.244Z,1.90
2018-08-11T19:00:20.298Z,1.93
2018-08-11T19:02:48.350Z,2.57
2018-08-11T19:05:16.333Z,2.33
2018-08-11T19:07:44.887Z,2.33
2018-08-11T19:10:13.638Z,1.90
2018-08-11T19:12:41.925Z,1.60
2018-08-11T19:15:12.686Z,2.90
2018-08-11T19:17:41.324Z,2.67
2018-08-11T19:20:12.947Z,3.63
2018-08-11T19:22:40.840Z,4.03
2018-08-11T19:25:10.154Z,3.00
2018-08-11T19:27:38.713Z,3.60
2018-08-11T19:30:08.498Z,3.07
2018-08-11T19:32:37.816Z,2.70
2018-08-11T19:35:05.816Z,2.20
2018-08-11T19:37:34.157Z,2.20
2018-08-11T19:40:02.920Z,2.60
2018-08-11T19:42:31.056Z,2.47
2018-08-11T19:45:00.092Z,2.47
2018-08-11T19:47:28.146Z,2.87
2018-08-11T19:49:56.373Z,2.20
2018-08-11T19:52:24.960Z,3.07
2018-08-11T19:54:54.124Z,2.80
2018-08-11T19:57:22.893Z,2.27
2018-08-11T19:59:51.214Z,2.37
2018-08-11T20:02:19.679Z,2.13
2018-08-11T20:04:47.644Z,2.20
2018-08-11T20:07:17.061Z,2.77
2018-08-11T20:09:44.625Z,2.03
2018-08-11T20:12:13.842Z,2.90
2018-08-11T20:14:41.951Z,2.80
2018-08-11T20:17:10.068Z,2.73
2018-08-11T20:19:38.919Z,2.77
2018-08-11T20:22:12.420Z,2.07
2018-08-11T20:24:41.025Z,2.30
2018-08-11T20:27:09.363Z,2.60
2018-08-11T20:29:39.625Z,2.37
2018-08-11T20:32:09.239Z,2.30
2018-08-11T20:34:38.204Z,3.23
2018-08-11T20:37:06.956Z,1.90
2018-08-11T20:39:34.890Z,2.50
2018-08-11T20:42:03.569Z,2.37
2018-08-11T20:44:31.554Z,2.17
2018-08-11T20:47:00.235Z,2.57
2018-08-11T20:49:28.504Z,2.50
2018-08-11T20:51:57.405Z,2.03
2018-08-11T20:54:25.188Z,2.53
2018-08-11T20:56:53.928Z,2.30
2018-08-11T20:59:22.776Z,2.80
2018-08-11T21:01:51.046Z,2.43
2018-08-11T21:04:19.116Z,3.13
2018-08-11T21:06:46.901Z,2.07
2018-08-11T21:09:15.805Z,2.20
2018-08-11T21:11:43.952Z,3.20
2018-08-11T21:14:12.712Z,2.70
2018-08-11T21:16:40.779Z,2.53
2018-08-11T21:19:08.658Z,2.97
2018-08-11T21:21:37.480Z,2.77
2018-08-11T21:24:06.377Z,2.60
2018-08-11T21:26:36.624Z,2.53
2018-08-11T21:29:05.735Z,2.60
2018-08-11T21:31:34.250Z,2.33
2018-08-11T21:34:03.484Z,1.93
2018-08-11T21:36:33.019Z,2.10
2018-08-11T21:39:01.047Z,1.90
2018-08-11T21:41:30.324Z,2.10
2018-08-11T21:43:58.381Z,2.40
2018-08-11T21:46:26.549Z,2.87
2018-08-11T21:48:54.634Z,2.50
2018-08-11T21:51:22.698Z,2.27
2018-08-11T21:53:50.743Z,2.67
2018-08-11T21:56:18.642Z,2.63
2018-08-11T21:58:46.619Z,3.20
2018-08-11T22:01:15.670Z,2.10
2018-08-11T22:03:45.343Z,3.00
2018-08-11T22:06:14.097Z,2.87
2018-08-11T22:08:43.296Z,3.10
2018-08-11T22:11:12.614Z,3.73
2018-08-11T22:13:40.894Z,2.80
2018-08-11T22:16:09.491Z,2.70
2018-08-11T22:18:37.529Z,2.40
2018-08-11T22:21:05.694Z,2.50
2018-08-11T22:23:33.807Z,2.70
2018-08-11T22:26:02.515Z,2.33
2018-08-11T22:28:32.158Z,2.50
2018-08-11T22:31:00.253Z,2.00
2018-08-11T22:33:29.651Z,2.07
2018-08-11T22:35:57.548Z,2.03
2018-08-11T22:38:26.112Z,1.80
2018-08-11T22:40:54.028Z,1.70
2018-08-11T22:43:21.925Z,1.50
2018-08-11T22:45:50.363Z,1.90
2018-08-11T22:48:18.927Z,1.90
2018-08-11T22:50:46.926Z,2.10
2018-08-11T22:53:15.630Z,1.40
2018-08-11T22:55:43.596Z,2.30
2018-08-11T22:58:11.680Z,2.13
2018-08-11T23:00:40.628Z,1.60
2018-08-11T23:03:09.325Z,2.00
2018-08-11T23:05:37.253Z,1.60
2018-08-11T23:08:06.276Z,1.60
2018-08-11T23:10:35.137Z,1.40
2018-08-11T23:13:04.597Z,2.40
2018-08-11T23:15:32.996Z,1.83
2018-08-11T23:18:02.608Z,1.77
2018-08-11T23:20:30.577Z,2.00
2018-08-11T23:22:58.474Z,1.90
2018-08-11T23:25:26.492Z,2.40
2018-08-11T23:27:55.125Z,2.17
2018-08-11T23:30:23.145Z,1.77
2018-08-11T23:32:52.120Z,1.50
2018-08-11T23:35:21.408Z,1.67
2018-08-11T23:37:50.303Z,1.77
2018-08-11T23:40:20.661Z,1.43
2018-08-11T23:42:48.784Z,1.80
2018-08-11T23:45:17.281Z,2.20
2018-08-11T23:47:47.501Z,1.83
2018-08-11T23:50:16.057Z,1.67
2018-08-11T23:52:44.489Z,1.90
2018-08-11T23:55:13.390Z,1.70
2018-08-11T23:57:42.536Z,1.60
